sensor_id;sensor_type;location;lat;lon;timestamp;pressure;altitude;pressure_sealevel;temperature;humidity
4972;BME280;2501;51.214;6.768;2023-12-07T00:00:25;101714.28;;;0.94;100.00
4972;BME280;2501;51.214;6.768;2023-12-07T00:02:53;101723.63;;;0.92;100.00
4972;BME280;2501;51.214;6.768;2023-12-07T00:05:22;101715.78;;;0.91;100.00
4972;BME280;2501;51.214;6.768;2023-12-07T00:07:50;101718.34;;;0.91;100.00
4972;BME280;2501;51.214;6.768;2023-12-07T00:10:21;101720.13;;;0.92;100.00
4972;BME280;2501;51.214;6.768;2023-12-07T00:12:50;101714.97;;;0.92;100.00
4972;BME280;2501;51.214;6.768;2023-12-07T00:15:18;101719.84;;;0.87;100.00
4972;BME280;2501;51.214;6.768;2023-12-07T00:17:47;101716.31;;;0.85;100.00
4972;BME280;2501;51.214;6.768;2023-12-07T00:20:15;101718.16;;;0.88;100.00
4972;BME280;2501;51.214;6.768;2023-12-07T00:22:43;101720.22;;;0.93;100.00
4972;BME280;2501;51.214;6.768;2023-12-07T00:25:12;101713.38;;;0.94;100.00
4972;BME280;2501;51.214;6.768;2023-12-07T00:27:43;101711.50;;;0.91;100.00
4972;BME280;2501;51.214;6.768;2023-12-07T00:30:12;101711.31;;;0.88;100.00
4972;BME280;2501;51.214;6.768;2023-12-07T00:32:41;101712.94;;;0.86;100.00
4972;BME280;2501;51.214;6.768;2023-12-07T00:35:10;101711.97;;;0.99;100.00
4972;BME280;2501;51.214;6.768;2023-12-07T00:37:39;101712.59;;;1.10;100.00
4972;BME280;2501;51.214;6.768;2023-12-07T00:40:08;101707.41;;;1.10;100.00
4972;BME280;2501;51.214;6.768;2023-12-07T00:42:37;101702.25;;;0.95;100.00
4972;BME280;2501;51.214;6.768;2023-12-07T00:45:09;101714.38;;;1.11;100.00
4972;BME280;2501;51.214;6.768;2023-12-07T00:47:37;101714.56;;;1.14;100.00
4972;BME280;2501;51.214;6.768;2023-12-07T00:50:06;101714.75;;;1.17;100.00
4972;BME280;2501;51.214;6.768;2023-12-07T00:52:35;101715.66;;;1.17;100.00
4972;BME280;2501;51.214;6.768;2023-12-07T00:55:05;101713.06;;;1.17;100.00
4972;BME280;2501;51.214;6.768;2023-12-07T00:57:33;101715.19;;;1.10;100.00
4972;BME280;2501;51.214;6.768;2023-12-07T01:00:02;101715.28;;;1.11;100.00
4972;BME280;2501;51.214;6.768;2023-12-07T01:02:33;101723.38;;;1.02;100.00
4972;BME280;2501;51.214;6.768;2023-12-07T01:05:02;101719.63;;;0.97;100.00
4972;BME280;2501;51.214;6.768;2023-12-07T01:07:31;101716.56;;;0.90;100.00
4972;BME280;2501;51.214;6.768;2023-12-07T01:09:59;101714.19;;;0.93;100.00
4972;BME280;2501;51.214;6.768;2023-12-07T01:12:28;101716.84;;;0.94;100.00
4972;BME280;2501;51.214;6.768;2023-12-07T01:14:56;101721.13;;;0.94;100.00
4972;BME280;2501;51.214;6.768;2023-12-07T01:17:25;101721.13;;;0.94;100.00
4972;BME280;2501;51.214;6.768;2023-12-07T01:19:56;101723.44;;;0.89;100.00
4972;BME280;2501;51.214;6.768;2023-12-07T01:22:24;101726.81;;;0.88;100.00
4972;BME280;2501;51.214;6.768;2023-12-07T01:24:53;101722.38;;;0.86;100.00
4972;BME280;2501;51.214;6.768;2023-12-07T01:27:21;101724.69;;;0.81;100.00
4972;BME280;2501;51.214;6.768;2023-12-07T01:29:49;101712.47;;;0.79;100.00
4972;BME280;2501;51.214;6.768;2023-12-07T01:32:18;101713.44;;;0.81;100.00
4972;BME280;2501;51.214;6.768;2023-12-07T01:34:47;101717.44;;;0.76;100.00
4972;BME280;2501;51.214;6.768;2023-12-07T01:37:18;101724.00;;;0.70;100.00
4972;BME280;2501;51.214;6.768;2023-12-07T01:39:46;101723.84;;;0.67;100.00
4972;BME280;2501;51.214;6.768;2023-12-07T01:42:15;101729.00;;;0.67;100.00
4972;BME280;2501;51.214;6.768;2023-12-07T01:44:43;101731.69;;;0.69;100.00
4972;BME280;2501;51.214;6.768;2023-12-07T01:47:12;101736.91;;;0.70;100.00
4972;BME280;2501;51.214;6.768;2023-12-07T01:49:41;101733.53;;;0.72;100.00
4972;BME280;2501;51.214;6.768;2023-12-07T01:52:10;101736.66;;;0.66;100.00
4972;BME280;2501;51.214;6.768;2023-12-07T01:54:42;101743.44;;;0.79;100.00
4972;BME280;2501;51.214;6.768;2023-12-07T01:57:10;101748.81;;;0.82;100.00
4972;BME280;2501;51.214;6.768;2023-12-07T01:59:39;101746.03;;;0.79;100.00
4972;BME280;2501;51.214;6.768;2023-12-07T02:02:08;101749.50;;;0.79;100.00
4972;BME280;2501;51.214;6.768;2023-12-07T02:04:36;101750.69;;;0.84;100.00
4972;BME280;2501;51.214;6.768;2023-12-07T02:07:06;101758.94;;;0.79;100.00
4972;BME280;2501;51.214;6.768;2023-12-07T02:09:35;101755.09;;;0.72;100.00
4972;BME280;2501;51.214;6.768;2023-12-07T02:12:06;101750.91;;;0.74;100.00
4972;BME280;2501;51.214;6.768;2023-12-07T02:14:35;101754.78;;;0.81;100.00
4972;BME280;2501;51.214;6.768;2023-12-07T02:17:10;101758.19;;;0.94;100.00
4972;BME280;2501;51.214;6.768;2023-12-07T02:19:51;101762.00;;;0.86;100.00
4972;BME280;2501;51.214;6.768;2023-12-07T02:22:25;101758.94;;;0.79;100.00
4972;BME280;2501;51.214;6.768;2023-12-07T02:25:06;101761.56;;;0.93;100.00
4972;BME280;2501;51.214;6.768;2023-12-07T02:27:40;101760.84;;;0.96;100.00
4972;BME280;2501;51.214;6.768;2023-12-07T02:30:10;101773.34;;;1.03;100.00
4972;BME280;2501;51.214;6.768;2023-12-07T02:32:40;101775.84;;;1.01;100.00
4972;BME280;2501;51.214;6.768;2023-12-07T02:35:09;101770.50;;;0.98;100.00
4972;BME280;2501;51.214;6.768;2023-12-07T02:37:42;101773.09;;;1.13;100.00
4972;BME280;2501;51.214;6.768;2023-12-07T02:40:13;101779.84;;;1.11;100.00
4972;BME280;2501;51.214;6.768;2023-12-07T02:42:46;101781.66;;;1.12;100.00
4972;BME280;2501;51.214;6.768;2023-12-07T02:45:16;101777.09;;;1.08;100.00
4972;BME280;2501;51.214;6.768;2023-12-07T02:47:44;101775.31;;;1.07;100.00
4972;BME280;2501;51.214;6.768;2023-12-07T02:50:13;101771.94;;;1.23;100.00
4972;BME280;2501;51.214;6.768;2023-12-07T02:52:42;101768.91;;;1.15;100.00
4972;BME280;2501;51.214;6.768;2023-12-07T02:55:10;101759.09;;;1.10;100.00
4972;BME280;2501;51.214;6.768;2023-12-07T02:57:39;101755.28;;;1.03;100.00
4972;BME280;2501;51.214;6.768;2023-12-07T03:00:11;101750.63;;;1.12;100.00
4972;BME280;2501;51.214;6.768;2023-12-07T03:02:40;101749.56;;;1.09;100.00
4972;BME280;2501;51.214;6.768;2023-12-07T03:05:09;101750.44;;;1.09;100.00
4972;BME280;2501;51.214;6.768;2023-12-07T03:07:37;101752.16;;;1.09;100.00
4972;BME280;2501;51.214;6.768;2023-12-07T03:10:07;101751.81;;;1.17;100.00
4972;BME280;2501;51.214;6.768;2023-12-07T03:12:35;101748.25;;;1.15;100.00
4972;BME280;2501;51.214;6.768;2023-12-07T03:15:05;101749.25;;;1.32;100.00
4972;BME280;2501;51.214;6.768;2023-12-07T03:17:37;101741.72;;;1.07;100.00
4972;BME280;2501;51.214;6.768;2023-12-07T03:20:07;101742.50;;;1.06;100.00
4972;BME280;2501;51.214;6.768;2023-12-07T03:22:36;101745.75;;;1.02;100.00
4972;BME280;2501;51.214;6.768;2023-12-07T03:25:05;101741.19;;;0.98;100.00
4972;BME280;2501;51.214;6.768;2023-12-07T03:27:33;101743.03;;;0.86;100.00
4972;BME280;2501;51.214;6.768;2023-12-07T03:30:02;101741.88;;;0.95;100.00
4972;BME280;2501;51.214;6.768;2023-12-07T03:32:30;101754.50;;;0.91;100.00
4972;BME280;2501;51.214;6.768;2023-12-07T03:35:01;101745.88;;;0.90;100.00
4972;BME280;2501;51.214;6.768;2023-12-07T03:37:30;101744.97;;;0.90;100.00
4972;BME280;2501;51.214;6.768;2023-12-07T03:39:58;101744.78;;;0.87;100.00
4972;BME280;2501;51.214;6.768;2023-12-07T03:42:26;101745.19;;;1.08;100.00
4972;BME280;2501;51.214;6.768;2023-12-07T03:44:55;101747.44;;;1.16;100.00
4972;BME280;2501;51.214;6.768;2023-12-07T03:47:24;101746.28;;;1.26;100.00
4972;BME280;2501;51.214;6.768;2023-12-07T03:49:52;101742.19;;;1.29;100.00
4972;BME280;2501;51.214;6.768;2023-12-07T03:52:23;101745.56;;;1.28;100.00
4972;BME280;2501;51.214;6.768;2023-12-07T03:54:52;101745.94;;;1.34;100.00
4972;BME280;2501;51.214;6.768;2023-12-07T03:57:20;101750.03;;;1.46;100.00
4972;BME280;2501;51.214;6.768;2023-12-07T03:59:46;101750.22;;;1.49;100.00
4972;BME280;2501;51.214;6.768;2023-12-07T04:02:14;101738.47;;;1.54;100.00
4972;BME280;2501;51.214;6.768;2023-12-07T04:04:43;101740.41;;;1.58;100.00
4972;BME280;2501;51.214;6.768;2023-12-07T04:07:11;101739.78;;;1.62;100.00
4972;BME280;2501;51.214;6.768;2023-12-07T04:09:42;101736.31;;;1.61;100.00
4972;BME280;2501;51.214;6.768;2023-12-07T04:12:10;101739.97;;;1.65;100.00
4972;BME280;2501;51.214;6.768;2023-12-07T04:14:39;101734.97;;;1.68;100.00
4972;BME280;2501;51.214;6.768;2023-12-07T04:17:07;101742.72;;;1.68;100.00
4972;BME280;2501;51.214;6.768;2023-12-07T04:19:36;101744.69;;;1.72;100.00
4972;BME280;2501;51.214;6.768;2023-12-07T04:22:04;101746.63;;;1.76;100.00
4972;BME280;2501;51.214;6.768;2023-12-07T04:24:33;101750.91;;;1.75;100.00
4972;BME280;2501;51.214;6.768;2023-12-07T04:27:04;101748.59;;;1.80;100.00
4972;BME280;2501;51.214;6.768;2023-12-07T04:29:32;101753.41;;;1.89;100.00
4972;BME280;2501;51.214;6.768;2023-12-07T04:32:01;101749.94;;;1.88;100.00
4972;BME280;2501;51.214;6.768;2023-12-07T04:34:30;101758.59;;;1.89;100.00
4972;BME280;2501;51.214;6.768;2023-12-07T04:36:58;101756.63;;;1.85;100.00
4972;BME280;2501;51.214;6.768;2023-12-07T04:39:27;101757.50;;;1.85;100.00
4972;BME280;2501;51.214;6.768;2023-12-07T04:41:55;101762.06;;;1.89;100.00
4972;BME280;2501;51.214;6.768;2023-12-07T04:44:26;101766.44;;;1.90;100.00
4972;BME280;2501;51.214;6.768;2023-12-07T04:46:55;101767.84;;;1.85;100.00
4972;BME280;2501;51.214;6.768;2023-12-07T04:49:23;101766.50;;;1.92;100.00
4972;BME280;2501;51.214;6.768;2023-12-07T04:51:51;101766.56;;;1.93;100.00
4972;BME280;2501;51.214;6.768;2023-12-07T04:54:20;101775.13;;;1.92;100.00
4972;BME280;2501;51.214;6.768;2023-12-07T04:56:48;101765.88;;;1.96;100.00
4972;BME280;2501;51.214;6.768;2023-12-07T04:59:17;101775.41;;;1.97;100.00
4972;BME280;2501;51.214;6.768;2023-12-07T05:01:49;101774.88;;;2.02;100.00
4972;BME280;2501;51.214;6.768;2023-12-07T05:04:18;101772.28;;;2.02;100.00
4972;BME280;2501;51.214;6.768;2023-12-07T05:06:46;101782.81;;;2.05;100.00
4972;BME280;2501;51.214;6.768;2023-12-07T05:09:15;101783.06;;;2.10;100.00
4972;BME280;2501;51.214;6.768;2023-12-07T05:11:43;101782.16;;;2.09;100.00
4972;BME280;2501;51.214;6.768;2023-12-07T05:14:13;101781.22;;;2.07;100.00
4972;BME280;2501;51.214;6.768;2023-12-07T05:16:41;101781.44;;;2.12;100.00
4972;BME280;2501;51.214;6.768;2023-12-07T05:19:13;101786.91;;;2.02;100.00
4972;BME280;2501;51.214;6.768;2023-12-07T05:21:42;101785.31;;;2.04;100.00
4972;BME280;2501;51.214;6.768;2023-12-07T05:24:10;101782.16;;;2.09;100.00
4972;BME280;2501;51.214;6.768;2023-12-07T05:26:40;101784.75;;;2.09;100.00
4972;BME280;2501;51.214;6.768;2023-12-07T05:29:09;101793.50;;;2.12;100.00
4972;BME280;2501;51.214;6.768;2023-12-07T05:31:38;101798.16;;;2.02;100.00
4972;BME280;2501;51.214;6.768;2023-12-07T05:34:07;101797.28;;;2.02;100.00
4972;BME280;2501;51.214;6.768;2023-12-07T05:36:38;101796.38;;;2.01;100.00
4972;BME280;2501;51.214;6.768;2023-12-07T05:39:04;101792.38;;;2.06;100.00
4972;BME280;2501;51.214;6.768;2023-12-07T05:41:32;101786.22;;;2.04;100.00
4972;BME280;2501;51.214;6.768;2023-12-07T05:44:01;101787.09;;;2.05;100.00
4972;BME280;2501;51.214;6.768;2023-12-07T05:46:29;101793.09;;;2.04;100.00
4972;BME280;2501;51.214;6.768;2023-12-07T05:48:58;101786.31;;;2.06;100.00
4972;BME280;2501;51.214;6.768;2023-12-07T05:51:27;101779.34;;;2.05;100.00
4972;BME280;2501;51.214;6.768;2023-12-07T05:53:58;101774.88;;;2.02;100.00
4972;BME280;2501;51.214;6.768;2023-12-07T05:56:26;101775.94;;;2.06;100.00
4972;BME280;2501;51.214;6.768;2023-12-07T05:58:56;101780.31;;;2.07;100.00
4972;BME280;2501;51.214;6.768;2023-12-07T06:01:25;101776.91;;;2.08;100.00
4972;BME280;2501;51.214;6.768;2023-12-07T06:03:53;101773.34;;;2.06;100.00
4972;BME280;2501;51.214;6.768;2023-12-07T06:06:22;101765.69;;;2.07;100.00
4972;BME280;2501;51.214;6.768;2023-12-07T06:08:50;101769.44;;;1.98;100.00
4972;BME280;2501;51.214;6.768;2023-12-07T06:11:21;101762.66;;;2.00;100.00
4972;BME280;2501;51.214;6.768;2023-12-07T06:13:50;101757.09;;;2.08;100.00
4972;BME280;2501;51.214;6.768;2023-12-07T06:16:18;101757.25;;;2.12;100.00
4972;BME280;2501;51.214;6.768;2023-12-07T06:18:47;101765.69;;;2.07;100.00
4972;BME280;2501;51.214;6.768;2023-12-07T06:21:15;101753.19;;;2.00;100.00
4972;BME280;2501;51.214;6.768;2023-12-07T06:23:44;101750.06;;;1.91;100.00
4972;BME280;2501;51.214;6.768;2023-12-07T06:26:13;101754.53;;;1.94;100.00
4972;BME280;2501;51.214;6.768;2023-12-07T06:28:44;101753.03;;;1.97;100.00
4972;BME280;2501;51.214;6.768;2023-12-07T06:31:12;101751.94;;;1.94;100.00
4972;BME280;2501;51.214;6.768;2023-12-07T06:33:45;101752.66;;;1.91;100.00
4972;BME280;2501;51.214;6.768;2023-12-07T06:36:18;101751.78;;;1.91;100.00
4972;BME280;2501;51.214;6.768;2023-12-07T06:38:46;101754.25;;;2.04;100.00
4972;BME280;2501;51.214;6.768;2023-12-07T06:41:15;101751.50;;;2.01;100.00
4972;BME280;2501;51.214;6.768;2023-12-07T06:43:46;101755.44;;;1.94;100.00
4972;BME280;2501;51.214;6.768;2023-12-07T06:46:15;101753.50;;;1.90;100.00
4972;BME280;2501;51.214;6.768;2023-12-07T06:48:43;101749.75;;;1.85;100.00
4972;BME280;2501;51.214;6.768;2023-12-07T06:51:12;101744.56;;;1.85;100.00
4972;BME280;2501;51.214;6.768;2023-12-07T06:53:41;101744.31;;;1.81;100.00
4972;BME280;2501;51.214;6.768;2023-12-07T06:56:10;101747.50;;;1.77;100.00
4972;BME280;2501;51.214;6.768;2023-12-07T06:58:38;101752.97;;;1.81;100.00
4972;BME280;2501;51.214;6.768;2023-12-07T07:01:09;101752.88;;;1.80;100.00
4972;BME280;2501;51.214;6.768;2023-12-07T07:03:38;101750.19;;;1.78;100.00
4972;BME280;2501;51.214;6.768;2023-12-07T07:06:07;101749.22;;;1.76;100.00
4972;BME280;2501;51.214;6.768;2023-12-07T07:08:36;101749.22;;;1.76;100.00
4972;BME280;2501;51.214;6.768;2023-12-07T07:11:11;101746.28;;;1.85;100.00
4972;BME280;2501;51.214;6.768;2023-12-07T07:13:40;101742.88;;;1.86;100.00
4972;BME280;2501;51.214;6.768;2023-12-07T07:16:11;101741.72;;;1.81;100.00
4972;BME280;2501;51.214;6.768;2023-12-07T07:18:40;101743.78;;;1.86;100.00
4972;BME280;2501;51.214;6.768;2023-12-07T07:21:08;101743.59;;;1.83;100.00
4972;BME280;2501;51.214;6.768;2023-12-07T07:23:37;101747.59;;;1.78;100.00
4972;BME280;2501;51.214;6.768;2023-12-07T07:26:05;101748.97;;;1.71;100.00
4972;BME280;2501;51.214;6.768;2023-12-07T07:28:34;101737.06;;;1.75;100.00
4972;BME280;2501;51.214;6.768;2023-12-07T07:31:02;101742.16;;;1.73;100.00
4972;BME280;2501;51.214;6.768;2023-12-07T07:33:34;101748.00;;;1.69;100.00
4972;BME280;2501;51.214;6.768;2023-12-07T07:36:03;101747.00;;;1.67;100.00
4972;BME280;2501;51.214;6.768;2023-12-07T07:38:31;101751.28;;;1.67;100.00
4972;BME280;2501;51.214;6.768;2023-12-07T07:41:00;101761.44;;;1.64;100.00
4972;BME280;2501;51.214;6.768;2023-12-07T07:43:29;101761.00;;;1.56;100.00
4972;BME280;2501;51.214;6.768;2023-12-07T07:45:59;101761.09;;;1.58;100.00
4972;BME280;2501;51.214;6.768;2023-12-07T07:48:28;101754.97;;;1.56;100.00
4972;BME280;2501;51.214;6.768;2023-12-07T07:50:59;101745.31;;;1.53;100.00
4972;BME280;2501;51.214;6.768;2023-12-07T07:53:28;101752.38;;;1.56;100.00
4972;BME280;2501;51.214;6.768;2023-12-07T07:55:57;101750.59;;;1.55;100.00
4972;BME280;2501;51.214;6.768;2023-12-07T07:58:25;101754.06;;;1.55;100.00
4972;BME280;2501;51.214;6.768;2023-12-07T08:00:53;101751.38;;;1.54;100.00
4972;BME280;2501;51.214;6.768;2023-12-07T08:03:22;101751.13;;;1.49;100.00
4972;BME280;2501;51.214;6.768;2023-12-07T08:05:50;101755.56;;;1.52;100.00
4972;BME280;2501;51.214;6.768;2023-12-07T08:08:21;101750.84;;;1.59;100.00
4972;BME280;2501;51.214;6.768;2023-12-07T08:10:51;101761.19;;;1.59;100.00
4972;BME280;2501;51.214;6.768;2023-12-07T08:13:20;101764.22;;;1.52;100.00
4972;BME280;2501;51.214;6.768;2023-12-07T08:15:48;101761.63;;;1.52;100.00
4972;BME280;2501;51.214;6.768;2023-12-07T08:18:17;101758.41;;;1.56;100.00
4972;BME280;2501;51.214;6.768;2023-12-07T08:20:46;101758.69;;;1.46;100.00
4972;BME280;2501;51.214;6.768;2023-12-07T08:23:14;101760.75;;;1.37;100.00
4972;BME280;2501;51.214;6.768;2023-12-07T08:25:46;101763.25;;;1.35;100.00
4972;BME280;2501;51.214;6.768;2023-12-07T08:28:14;101767.84;;;1.41;100.00
4972;BME280;2501;51.214;6.768;2023-12-07T08:30:43;101767.34;;;1.47;100.00
4972;BME280;2501;51.214;6.768;2023-12-07T08:33:11;101766.34;;;1.45;100.00
4972;BME280;2501;51.214;6.768;2023-12-07T08:35:40;101767.34;;;1.47;100.00
4972;BME280;2501;51.214;6.768;2023-12-07T08:38:08;101768.13;;;1.46;100.00
4972;BME280;2501;51.214;6.768;2023-12-07T08:40:57;101775.97;;;1.47;100.00
4972;BME280;2501;51.214;6.768;2023-12-07T08:43:26;101774.91;;;1.44;100.00
4972;BME280;2501;51.214;6.768;2023-12-07T08:45:55;101774.38;;;1.49;100.00
4972;BME280;2501;51.214;6.768;2023-12-07T08:48:24;101776.50;;;1.42;100.00
4972;BME280;2501;51.214;6.768;2023-12-07T08:50:52;101779.09;;;1.42;100.00
4972;BME280;2501;51.214;6.768;2023-12-07T08:53:21;101778.09;;;1.39;100.00
4972;BME280;2501;51.214;6.768;2023-12-07T08:55:49;101769.13;;;1.48;100.00
4972;BME280;2501;51.214;6.768;2023-12-07T08:58:21;101778.22;;;1.56;100.00
4972;BME280;2501;51.214;6.768;2023-12-07T09:00:49;101775.38;;;1.51;100.00
4972;BME280;2501;51.214;6.768;2023-12-07T09:03:18;101771.09;;;1.52;100.00
4972;BME280;2501;51.214;6.768;2023-12-07T09:05:51;101755.03;;;1.57;100.00
4972;BME280;2501;51.214;6.768;2023-12-07T09:08:19;101768.69;;;1.55;100.00
4972;BME280;2501;51.214;6.768;2023-12-07T09:10:47;101769.03;;;1.61;100.00
4972;BME280;2501;51.214;6.768;2023-12-07T09:13:16;101763.84;;;1.61;100.00
4972;BME280;2501;51.214;6.768;2023-12-07T09:15:48;101766.72;;;2.11;100.00
4972;BME280;2501;51.214;6.768;2023-12-07T09:18:16;101764.66;;;1.89;100.00
4972;BME280;2501;51.214;6.768;2023-12-07T09:20:48;101762.50;;;1.82;100.00
4972;BME280;2501;51.214;6.768;2023-12-07T09:23:17;101751.53;;;1.86;100.00
4972;BME280;2501;51.214;6.768;2023-12-07T09:25:45;101747.25;;;1.87;100.00
4972;BME280;2501;51.214;6.768;2023-12-07T09:28:14;101750.44;;;1.97;100.00
4972;BME280;2501;51.214;6.768;2023-12-07T09:30:42;101761.00;;;1.86;100.00
4972;BME280;2501;51.214;6.768;2023-12-07T09:33:13;101764.47;;;1.86;100.00
4972;BME280;2501;51.214;6.768;2023-12-07T09:35:42;101768.56;;;1.83;100.00
4972;BME280;2501;51.214;6.768;2023-12-07T09:38:10;101765.59;;;1.91;100.00
4972;BME280;2501;51.214;6.768;2023-12-07T09:40:39;101756.94;;;2.05;100.00
4972;BME280;2501;51.214;6.768;2023-12-07T09:43:08;101754.81;;;1.98;100.00
4972;BME280;2501;51.214;6.768;2023-12-07T09:45:36;101751.31;;;2.29;100.00
4972;BME280;2501;51.214;6.768;2023-12-07T09:48:05;101752.25;;;2.62;100.00
4972;BME280;2501;51.214;6.768;2023-12-07T09:50:39;101758.81;;;2.39;100.00
4972;BME280;2501;51.214;6.768;2023-12-07T09:53:08;101741.78;;;2.28;100.00
4972;BME280;2501;51.214;6.768;2023-12-07T09:55:36;101746.13;;;2.29;100.00
4972;BME280;2501;51.214;6.768;2023-12-07T09:58:05;101740.38;;;2.18;100.00
4972;BME280;2501;51.214;6.768;2023-12-07T10:00:33;101733.97;;;2.12;100.00
4972;BME280;2501;51.214;6.768;2023-12-07T10:03:02;101731.59;;;2.31;100.00
4972;BME280;2501;51.214;6.768;2023-12-07T10:05:33;101734.41;;;2.19;100.00
4972;BME280;2501;51.214;6.768;2023-12-07T10:08:04;101733.69;;;2.22;100.00
4972;BME280;2501;51.214;6.768;2023-12-07T10:10:33;101734.19;;;2.47;100.00
4972;BME280;2501;51.214;6.768;2023-12-07T10:13:02;101729.81;;;2.46;100.00
4972;BME280;2501;51.214;6.768;2023-12-07T10:15:31;101731.44;;;2.44;100.00
4972;BME280;2501;51.214;6.768;2023-12-07T10:17:59;101732.56;;;2.33;100.00
4972;BME280;2501;51.214;6.768;2023-12-07T10:20:29;101728.19;;;2.32;100.00
4972;BME280;2501;51.214;6.768;2023-12-07T10:23:06;101728.13;;;2.47;100.00
4972;BME280;2501;51.214;6.768;2023-12-07T10:25:36;101724.88;;;2.34;100.00
4972;BME280;2501;51.214;6.768;2023-12-07T10:28:07;101712.69;;;2.48;100.00
4972;BME280;2501;51.214;6.768;2023-12-07T10:30:39;101712.91;;;2.36;100.00
4972;BME280;2501;51.214;6.768;2023-12-07T10:33:09;101709.84;;;2.43;100.00
4972;BME280;2501;51.214;6.768;2023-12-07T10:35:38;101703.81;;;2.59;100.00
4972;BME280;2501;51.214;6.768;2023-12-07T10:38:10;101702.66;;;2.54;100.00
4972;BME280;2501;51.214;6.768;2023-12-07T10:40:39;101694.16;;;2.40;100.00
4972;BME280;2501;51.214;6.768;2023-12-07T10:43:08;101679.81;;;2.47;100.00
4972;BME280;2501;51.214;6.768;2023-12-07T10:45:37;101674.41;;;2.75;100.00
4972;BME280;2501;51.214;6.768;2023-12-07T10:48:06;101677.56;;;2.69;100.00
4972;BME280;2501;51.214;6.768;2023-12-07T10:50:37;101669.28;;;2.93;100.00
4972;BME280;2501;51.214;6.768;2023-12-07T10:53:19;101663.31;;;2.61;100.00
4972;BME280;2501;51.214;6.768;2023-12-07T10:55:52;101659.09;;;2.79;100.00
4972;BME280;2501;51.214;6.768;2023-12-07T10:58:23;101654.91;;;2.49;100.00
4972;BME280;2501;51.214;6.768;2023-12-07T11:00:53;101649.09;;;2.53;100.00
4972;BME280;2501;51.214;6.768;2023-12-07T11:03:22;101647.44;;;2.71;100.00
4972;BME280;2501;51.214;6.768;2023-12-07T11:05:51;101643.47;;;2.94;100.00
4972;BME280;2501;51.214;6.768;2023-12-07T11:08:28;101636.75;;;2.65;100.00
4972;BME280;2501;51.214;6.768;2023-12-07T11:11:02;101638.56;;;2.50;100.00
4972;BME280;2501;51.214;6.768;2023-12-07T11:13:36;101621.56;;;2.55;100.00
4972;BME280;2501;51.214;6.768;2023-12-07T11:16:05;101621.41;;;2.52;100.00
4972;BME280;2501;51.214;6.768;2023-12-07T11:18:33;101624.19;;;2.39;100.00
4972;BME280;2501;51.214;6.768;2023-12-07T11:21:02;101610.88;;;2.49;100.00
4972;BME280;2501;51.214;6.768;2023-12-07T11:23:33;101613.16;;;2.43;100.00
4972;BME280;2501;51.214;6.768;2023-12-07T11:26:05;101607.44;;;2.83;100.00
4972;BME280;2501;51.214;6.768;2023-12-07T11:28:38;101600.31;;;2.78;100.00
4972;BME280;2501;51.214;6.768;2023-12-07T11:31:07;101599.84;;;3.03;100.00
4972;BME280;2501;51.214;6.768;2023-12-07T11:33:37;101603.19;;;2.67;100.00
4972;BME280;2501;51.214;6.768;2023-12-07T11:36:08;101598.56;;;2.61;100.00
4972;BME280;2501;51.214;6.768;2023-12-07T11:41:44;101584.81;;;2.62;100.00
4972;BME280;2501;51.214;6.768;2023-12-07T11:44:13;101572.91;;;2.66;100.00
4972;BME280;2501;51.214;6.768;2023-12-07T11:46:41;101572.97;;;2.67;100.00
4972;BME280;2501;51.214;6.768;2023-12-07T11:49:10;101570.56;;;2.70;100.00
4972;BME280;2501;51.214;6.768;2023-12-07T11:51:39;101570.91;;;2.78;100.00
4972;BME280;2501;51.214;6.768;2023-12-07T11:54:10;101570.19;;;2.80;100.00
4972;BME280;2501;51.214;6.768;2023-12-07T11:56:39;101564.19;;;2.82;100.00
4972;BME280;2501;51.214;6.768;2023-12-07T11:59:07;101567.91;;;2.87;100.00
4972;BME280;2501;51.214;6.768;2023-12-07T12:01:36;101559.66;;;2.60;100.00
4972;BME280;2501;51.214;6.768;2023-12-07T12:04:05;101556.50;;;2.83;100.00
4972;BME280;2501;51.214;6.768;2023-12-07T12:06:34;101566.94;;;2.51;100.00
4972;BME280;2501;51.214;6.768;2023-12-07T12:09:03;101569.88;;;2.40;100.00
4972;BME280;2501;51.214;6.768;2023-12-07T12:11:34;101564.69;;;2.57;100.00
4972;BME280;2501;51.214;6.768;2023-12-07T12:14:02;101566.34;;;2.72;100.00
4972;BME280;2501;51.214;6.768;2023-12-07T12:16:31;101570.31;;;2.66;100.00
4972;BME280;2501;51.214;6.768;2023-12-07T12:19:00;101565.88;;;2.63;100.00
4972;BME280;2501;51.214;6.768;2023-12-07T12:21:33;101560.78;;;2.83;100.00
4972;BME280;2501;51.214;6.768;2023-12-07T12:24:04;101559.31;;;2.70;100.00
4972;BME280;2501;51.214;6.768;2023-12-07T12:26:38;101554.44;;;2.76;100.00
4972;BME280;2501;51.214;6.768;2023-12-07T12:29:07;101546.88;;;2.80;100.00
4972;BME280;2501;51.214;6.768;2023-12-07T12:31:37;101548.06;;;2.69;100.00
4972;BME280;2501;51.214;6.768;2023-12-07T12:34:06;101535.84;;;2.67;100.00
4972;BME280;2501;51.214;6.768;2023-12-07T12:36:37;101526.78;;;2.93;100.00
4972;BME280;2501;51.214;6.768;2023-12-07T12:39:06;101520.97;;;2.80;100.00
4972;BME280;2501;51.214;6.768;2023-12-07T12:41:38;101523.72;;;2.84;100.00
4972;BME280;2501;51.214;6.768;2023-12-07T12:44:07;101512.25;;;2.96;100.00
4972;BME280;2501;51.214;6.768;2023-12-07T12:46:36;101503.81;;;3.00;100.00
4972;BME280;2501;51.214;6.768;2023-12-07T12:49:04;101501.53;;;2.89;100.00
4972;BME280;2501;51.214;6.768;2023-12-07T12:51:33;101489.38;;;3.05;100.00
4972;BME280;2501;51.214;6.768;2023-12-07T12:54:02;101481.81;;;3.10;100.00
4972;BME280;2501;51.214;6.768;2023-12-07T12:56:31;101484.50;;;2.94;100.00
4972;BME280;2501;51.214;6.768;2023-12-07T12:59:03;101485.16;;;3.07;100.00
4972;BME280;2501;51.214;6.768;2023-12-07T13:01:32;101480.94;;;3.09;100.00
4972;BME280;2501;51.214;6.768;2023-12-07T13:04:00;101476.63;;;3.28;100.00
4972;BME280;2501;51.214;6.768;2023-12-07T13:06:29;101475.09;;;3.33;100.00
4972;BME280;2501;51.214;6.768;2023-12-07T13:08:57;101472.28;;;3.46;100.00
4972;BME280;2501;51.214;6.768;2023-12-07T13:11:26;101473.34;;;3.14;100.00
4972;BME280;2501;51.214;6.768;2023-12-07T13:13:54;101464.75;;;3.15;100.00
4972;BME280;2501;51.214;6.768;2023-12-07T13:16:25;101457.94;;;3.17;100.00
4972;BME280;2501;51.214;6.768;2023-12-07T13:18:54;101453.88;;;3.22;100.00
4972;BME280;2501;51.214;6.768;2023-12-07T13:21:22;101443.72;;;3.27;100.00
4972;BME280;2501;51.214;6.768;2023-12-07T13:23:51;101443.06;;;3.50;100.00